Time;durP1;ratioP1;P1;durP2;ratioP2;P2;SDS_P1;SDS_P2;PMS_P1;PMS_P2;Temp;Humidity;BMP_temperature;BMP_pressure;BME280_temperature;BME280_humidity;BME280_pressure;Samples;Min_cycle;Max_cycle;Signal;HPM_P1;HPM_P2
2023/02/01 00:02:22;;;;;;;4.33;3.83;;;;;;;7.13;65.37;98270.00;8447664;28;20279;-67
2023/02/01 00:06:25;;;;;;;4.30;3.90;;;;;;;7.11;65.65;98258.91;8447504;28;20294;-67
2023/02/01 00:10:29;;;;;;;4.57;4.13;;;;;;;7.14;65.56;98248.53;8446402;28;20232;-67
2023/02/01 00:14:38;;;;;;;5.10;4.60;;;;;;;6.99;66.32;98265.22;8447262;28;20224;-67
2023/02/01 00:18:40;;;;;;;5.07;4.37;;;;;;;7.00;66.83;98256.59;8446896;28;20518;-67
2023/02/01 00:22:43;;;;;;;5.80;4.60;;;;;;;7.13;66.13;98259.69;8446463;28;20220;-67
2023/02/01 00:26:48;;;;;;;4.33;3.93;;;;;;;7.12;65.73;98246.84;8446669;28;20223;-67
2023/02/01 00:30:57;;;;;;;4.20;3.80;;;;;;;7.10;65.90;98249.50;8446225;28;20235;-67
2023/02/01 00:35:00;;;;;;;4.17;3.77;;;;;;;7.20;65.73;98248.38;8446479;28;20247;-67
2023/02/01 00:39:03;;;;;;;5.23;3.60;;;;;;;7.18;65.76;98246.72;8446350;28;20227;-68
2023/02/01 00:43:08;;;;;;;3.87;3.43;;;;;;;7.34;64.68;98242.84;8446491;28;20227;-67
2023/02/01 00:47:10;;;;;;;3.70;3.40;;;;;;;7.13;65.33;98231.38;8446358;28;20314;-67
2023/02/01 00:51:15;;;;;;;3.93;3.53;;;;;;;7.13;65.52;98221.06;8445933;28;20230;-66
2023/02/01 00:55:17;;;;;;;3.50;3.20;;;;;;;7.34;65.26;98237.69;8445599;28;20246;-67
2023/02/01 00:59:22;;;;;;;3.40;3.10;;;;;;;7.30;64.82;98232.66;8445363;28;20227;-67
2023/02/01 01:03:24;;;;;;;3.30;3.00;;;;;;;7.42;64.72;98243.50;8445196;28;20227;-67
2023/02/01 01:07:28;;;;;;;4.03;3.53;;;;;;;7.48;64.63;98237.31;8445149;28;20558;-67
2023/02/01 01:11:33;;;;;;;2.97;2.77;;;;;;;7.02;65.77;98244.50;8445314;28;20511;-67
2023/02/01 01:15:41;;;;;;;3.37;2.63;;;;;;;6.99;66.36;98241.19;8445284;28;20337;-68
2023/02/01 01:19:44;;;;;;;3.37;3.07;;;;;;;7.11;65.75;98207.38;8444467;28;20233;-68
2023/02/01 01:23:47;;;;;;;3.30;3.00;;;;;;;7.23;65.90;98230.25;8444618;28;20231;-67
2023/02/01 01:27:50;;;;;;;3.13;2.90;;;;;;;7.27;65.70;98238.72;8444771;28;20243;-67
2023/02/01 01:31:56;;;;;;;2.90;2.70;;;;;;;7.29;65.55;98239.56;8444669;28;20238;-67
2023/02/01 01:35:58;;;;;;;3.40;3.00;;;;;;;6.73;66.71;98223.81;8444764;28;20241;-66
2023/02/01 01:40:01;;;;;;;3.20;2.90;;;;;;;6.89;66.42;98224.28;8444574;28;20263;-67
2023/02/01 01:44:06;;;;;;;2.90;2.70;;;;;;;7.12;66.40;98228.84;8444444;28;20231;-68
2023/02/01 01:48:14;;;;;;;3.33;3.03;;;;;;;6.92;66.83;98231.94;8444366;28;20251;-67
2023/02/01 01:52:17;;;;;;;4.87;2.97;;;;;;;6.92;66.18;98217.31;8444511;28;20232;-67
2023/02/01 01:56:20;;;;;;;4.30;3.13;;;;;;;6.90;66.95;98221.66;8444687;28;20224;-67
2023/02/01 02:00:23;;;;;;;3.53;3.20;;;;;;;6.78;66.42;98214.28;8444404;28;20235;-67
2023/02/01 02:04:28;;;;;;;3.00;2.70;;;;;;;7.15;65.65;98221.03;8444289;28;20621;-67
2023/02/01 02:08:31;;;;;;;3.23;2.93;;;;;;;7.07;66.18;98202.38;8443746;28;20236;-68
2023/02/01 02:12:34;;;;;;;3.10;2.80;;;;;;;7.26;65.25;98200.16;8443870;28;20231;-67
2023/02/01 02:16:59;;;;;;;3.20;2.60;;;;;;;7.21;65.01;98195.09;8443596;28;20515;-67
2023/02/01 02:21:25;;;;;;;2.73;2.50;;;;;;;7.07;65.72;98202.38;8443497;28;20235;-67
2023/02/01 02:25:47;;;;;;;3.70;3.17;;;;;;;7.30;64.33;98200.00;8443634;28;20223;-67
2023/02/01 02:30:18;;;;;;;3.27;2.97;;;;;;;7.09;65.66;98196.28;8443037;28;20231;-67
2023/02/01 02:34:27;;;;;;;3.77;3.37;;;;;;;7.21;64.95;98198.53;8449674;28;20235;-67
2023/02/01 02:38:34;;;;;;;3.63;3.33;;;;;;;7.14;65.38;98196.16;8450375;28;20391;-67
2023/02/01 02:55:51;;;;;;;2.93;2.73;;;;;;;7.18;65.39;98187.47;8449312;28;20223;-67
2023/02/01 03:04:17;;;;;;;3.00;2.80;;;;;;;7.42;64.05;98161.03;8449281;28;20227;-67
2023/02/01 03:08:22;;;;;;;2.73;2.53;;;;;;;7.15;64.21;98144.59;8449244;28;20228;-68
2023/02/01 03:16:48;;;;;;;2.80;2.60;;;;;;;7.27;64.14;98155.47;8448613;28;20224;-67
2023/02/01 03:20:53;;;;;;;2.73;2.53;;;;;;;7.19;64.60;98161.66;8449113;28;20410;-67
2023/02/01 03:25:00;;;;;;;2.93;2.73;;;;;;;7.24;64.49;98152.06;8448769;28;20219;-67
2023/02/01 03:29:07;;;;;;;3.20;2.90;;;;;;;7.06;64.29;98142.28;8448961;28;20303;-67
2023/02/01 03:33:21;;;;;;;3.17;2.90;;;;;;;7.13;65.06;98145.53;8448564;28;20235;-67
2023/02/01 03:37:27;;;;;;;3.67;3.37;;;;;;;6.87;65.60;98147.06;8448927;28;20258;-68
2023/02/01 03:41:36;;;;;;;3.77;3.47;;;;;;;7.13;65.01;98145.53;8448282;28;20276;-67
2023/02/01 03:45:42;;;;;;;3.47;3.20;;;;;;;7.15;64.99;98146.34;8448173;28;20406;-67
2023/02/01 03:49:47;;;;;;;4.03;3.63;;;;;;;7.32;64.28;98143.28;8447681;28;20224;-67
2023/02/01 03:53:50;;;;;;;3.80;3.50;;;;;;;7.38;64.09;98141.38;8447784;28;20238;-67
2023/02/01 03:57:58;;;;;;;5.03;4.03;;;;;;;6.93;65.09;98098.03;8447537;28;20238;-67
2023/02/01 04:02:01;;;;;;;4.50;3.80;;;;;;;7.35;64.41;98138.03;8447597;28;20402;-67
2023/02/01 04:06:04;;;;;;;4.50;4.10;;;;;;;7.26;64.58;98133.19;8447395;28;20236;-68
2023/02/01 04:10:07;;;;;;;4.33;3.83;;;;;;;7.10;65.92;98133.59;8447285;28;20242;-67
2023/02/01 04:14:12;;;;;;;4.57;4.17;;;;;;;7.20;65.56;98142.75;8447121;28;20285;-68
2023/02/01 04:18:14;;;;;;;5.57;4.23;;;;;;;7.15;66.23;98136.03;8447040;28;20525;-67
2023/02/01 04:22:17;;;;;;;6.30;4.17;;;;;;;7.14;67.14;98132.63;8447034;28;20231;-67
2023/02/01 04:26:20;;;;;;;4.63;4.20;;;;;;;6.52;67.52;98066.50;8447362;28;20416;-67
2023/02/01 04:30:24;;;;;;;5.73;4.20;;;;;;;6.79;67.50;98100.09;8446991;28;20326;-67
2023/02/01 04:34:27;;;;;;;4.47;4.07;;;;;;;6.88;67.57;98133.34;8446822;28;20224;-67
2023/02/01 04:38:32;;;;;;;4.63;4.07;;;;;;;6.98;67.69;98124.47;8446324;28;20227;-67
2023/02/01 04:42:34;;;;;;;3.97;3.60;;;;;;;6.95;66.99;98127.13;8445963;28;20494;-68
2023/02/01 04:46:39;;;;;;;4.40;4.00;;;;;;;7.05;67.40;98131.13;8445331;28;20231;-67
2023/02/01 04:50:42;;;;;;;4.37;3.97;;;;;;;7.03;67.25;98116.63;8445335;28;20230;-67
2023/02/01 04:54:44;;;;;;;4.30;3.90;;;;;;;7.06;67.05;98129.41;8444750;28;20227;-67
2023/02/01 04:58:47;;;;;;;4.97;4.47;;;;;;;7.05;67.10;98127.72;8445482;28;20511;-67
2023/02/01 05:02:51;;;;;;;7.13;6.27;;;;;;;6.82;67.31;98131.75;8445714;28;20234;-67
2023/02/01 05:06:54;;;;;;;4.53;4.13;;;;;;;6.92;67.77;98131.53;8445423;28;20234;-68
2023/02/01 05:10:58;;;;;;;4.40;3.60;;;;;;;7.09;66.73;98131.91;8444705;28;20242;-68
2023/02/01 05:15:01;;;;;;;5.10;3.70;;;;;;;6.83;67.11;98122.31;8445088;28;20592;-68
2023/02/01 05:19:05;;;;;;;4.10;2.57;;;;;;;6.78;66.11;98117.28;8445100;28;20361;-68
2023/02/01 05:23:08;;;;;;;5.43;2.60;;;;;;;6.85;65.83;98111.09;8444725;28;20419;-68
2023/02/01 05:27:11;;;;;;;4.57;2.00;;;;;;;6.71;66.79;98123.47;8444175;28;20292;-68
2023/02/01 05:31:13;;;;;;;6.30;2.40;;;;;;;6.89;65.62;98121.28;8444080;28;20238;-68
2023/02/01 05:35:18;;;;;;;3.87;1.67;;;;;;;6.81;66.00;98140.34;8443796;28;20549;-68
2023/02/01 05:39:21;;;;;;;5.93;1.80;;;;;;;6.67;66.67;98114.16;8444113;28;20238;-69
2023/02/01 05:43:24;;;;;;;2.43;1.93;;;;;;;6.80;66.17;98120.66;8444505;28;20231;-66
2023/02/01 05:47:26;;;;;;;1.53;1.43;;;;;;;6.87;65.78;98113.59;8444015;28;20404;-66
2023/02/01 05:51:31;;;;;;;1.77;1.50;;;;;;;6.89;65.30;98083.50;8444119;28;20236;-68
2023/02/01 05:55:34;;;;;;;2.07;1.43;;;;;;;6.81;65.64;98104.31;8444006;28;20254;-68
2023/02/01 05:59:40;;;;;;;2.23;1.60;;;;;;;6.97;65.05;98098.78;8443837;28;20300;-68
2023/02/01 06:03:43;;;;;;;2.13;1.70;;;;;;;6.93;65.34;98092.00;8443158;28;20491;-67
2023/02/01 06:07:49;;;;;;;3.53;1.63;;;;;;;6.96;65.36;98097.91;8442936;28;20264;-67
2023/02/01 06:11:52;;;;;;;2.27;1.60;;;;;;;7.15;64.65;98103.41;8444013;28;20223;-68
2023/02/01 06:15:55;;;;;;;1.50;1.40;;;;;;;7.09;64.83;98101.00;8444688;28;20328;-68
2023/02/01 06:19:58;;;;;;;1.37;1.20;;;;;;;7.08;64.38;98099.28;8444457;28;20400;-67
2023/02/01 06:24:02;;;;;;;1.40;1.30;;;;;;;7.18;64.38;98100.75;8443420;28;20234;-67
2023/02/01 06:28:06;;;;;;;1.10;1.10;;;;;;;7.00;64.61;98093.53;8443736;28;20230;-67
2023/02/01 06:32:09;;;;;;;0.90;0.90;;;;;;;6.90;64.40;98099.81;8443635;28;20235;-67
2023/02/01 06:36:13;;;;;;;0.97;0.93;;;;;;;6.93;63.86;98082.56;8443210;28;20228;-67
2023/02/01 06:40:17;;;;;;;1.10;1.10;;;;;;;7.16;63.92;98112.81;8442989;28;20223;-67
2023/02/01 06:44:20;;;;;;;0.93;0.93;;;;;;;7.04;64.26;98110.56;8442962;28;20592;-68
2023/02/01 06:48:23;;;;;;;0.90;0.90;;;;;;;7.19;63.89;98117.03;8442796;28;20242;-67
2023/02/01 06:52:26;;;;;;;1.20;1.20;;;;;;;7.01;64.12;98095.22;8442912;28;20228;-67
2023/02/01 06:56:31;;;;;;;1.33;1.23;;;;;;;7.01;64.45;98108.94;8442792;28;20228;-67
2023/02/01 07:00:34;;;;;;;1.60;1.20;;;;;;;7.21;63.84;98110.09;8442773;28;20235;-68
2023/02/01 07:04:36;;;;;;;1.60;1.50;;;;;;;6.99;65.06;98109.88;8442786;28;20226;-68
2023/02/01 07:08:39;;;;;;;1.50;1.40;;;;;;;7.24;64.15;98110.88;8442469;28;20245;-67
2023/02/01 07:12:43;;;;;;;2.03;1.80;;;;;;;7.09;64.96;98113.88;8442368;28;20223;-67
2023/02/01 07:16:46;;;;;;;1.97;1.67;;;;;;;7.15;64.13;98113.69;8443050;28;20222;-67
2023/02/01 07:20:50;;;;;;;6.10;2.33;;;;;;;7.10;64.81;98109.56;8449118;28;20239;-68
2023/02/01 07:24:53;;;;;;;2.20;2.00;;;;;;;7.20;64.38;98111.84;8448387;28;20514;-67
2023/02/01 07:28:58;;;;;;;1.70;1.60;;;;;;;7.26;64.79;98125.44;8448515;28;20549;-67
2023/02/01 07:33:00;;;;;;;3.07;2.13;;;;;;;7.12;64.74;98126.69;8448095;28;20246;-67
2023/02/01 07:37:03;;;;;;;2.10;1.90;;;;;;;7.15;65.12;98130.88;8440446;28;20227;-67
2023/02/01 07:41:07;;;;;;;3.47;2.03;;;;;;;7.25;64.92;98122.00;8461028;28;20245;-67
2023/02/01 07:45:13;;;;;;;2.93;2.00;;;;;;;7.32;64.23;98123.53;8448188;28;20550;-67
2023/02/01 07:49:23;;;;;;;2.83;2.10;;;;;;;7.29;63.74;98128.78;8447058;28;20231;-67
2023/02/01 07:53:26;;;;;;;2.50;2.00;;;;;;;7.34;64.14;98120.91;8448359;28;20234;-67
2023/02/01 07:57:29;;;;;;;2.93;1.93;;;;;;;7.35;64.56;98102.84;8447902;28;20543;-67
2023/02/01 08:01:33;;;;;;;3.33;2.03;;;;;;;7.23;64.13;98109.19;8447778;28;20227;-67
2023/02/01 08:05:36;;;;;;;4.27;2.10;;;;;;;7.86;62.01;98085.81;8447477;28;20289;-67
2023/02/01 08:09:39;;;;;;;3.50;1.90;;;;;;;8.55;60.02;98104.25;8447340;28;20224;-68
2023/02/01 08:13:42;;;;;;;4.07;1.80;;;;;;;8.33;60.33;98104.09;8446609;28;20408;-68
2023/02/01 08:17:50;;;;;;;4.83;2.03;;;;;;;7.83;61.56;98086.78;8446898;28;20427;-67
2023/02/01 08:21:53;;;;;;;2.40;1.63;;;;;;;8.86;60.13;98087.69;8446883;28;20231;-66
2023/02/01 08:26:05;;;;;;;3.50;1.63;;;;;;;8.11;60.83;98093.66;8447140;28;20227;-67
2023/02/01 08:30:09;;;;;;;3.53;1.67;;;;;;;8.35;60.61;98106.63;8445080;28;20227;-67
2023/02/01 08:34:13;;;;;;;2.83;1.50;;;;;;;9.42;56.83;98108.94;8446443;28;20236;-66
2023/02/01 08:38:16;;;;;;;3.87;1.67;;;;;;;9.27;57.06;98129.28;8446453;28;20483;-66
2023/02/01 08:46:40;;;;;;;1.87;1.40;;;;;;;9.91;55.04;98125.16;8446561;28;20225;-67
2023/02/01 08:50:44;;;;;;;3.50;1.47;;;;;;;10.25;57.57;98105.72;8445244;28;20245;-67
2023/02/01 08:54:47;;;;;;;4.10;2.20;;;;;;;8.92;57.26;98091.81;8445482;28;20225;-68
2023/02/01 08:58:50;;;;;;;5.27;2.00;;;;;;;8.99;57.66;98113.94;8445616;28;20304;-67
2023/02/01 09:02:53;;;;;;;4.13;2.00;;;;;;;8.44;59.38;98131.31;8445669;28;20228;-67
2023/02/01 09:06:57;;;;;;;4.93;1.93;;;;;;;8.21;60.06;98127.72;8445554;28;20231;-67
2023/02/01 09:11:00;;;;;;;2.57;1.60;;;;;;;8.44;60.15;98121.84;8445354;28;20309;-68
2023/02/01 09:15:06;;;;;;;2.87;2.10;;;;;;;8.67;58.77;98138.31;8445075;28;20234;-65
2023/02/01 09:19:10;;;;;;;4.93;2.30;;;;;;;8.21;59.60;98153.53;8445042;28;20223;-65
2023/02/01 09:23:30;;;;;;;4.47;1.80;;;;;;;9.05;57.76;98159.38;8445697;28;20575;-66
2023/02/01 09:27:33;;;;;;;5.77;1.77;;;;;;;8.55;57.75;98153.31;8445642;28;20246;-67
2023/02/01 09:31:36;;;;;;;5.10;1.90;;;;;;;9.84;52.35;98165.09;8444718;28;20423;-67
2023/02/01 09:35:41;;;;;;;5.27;1.87;;;;;;;10.09;52.25;98167.56;8444603;28;20232;-67
2023/02/01 09:39:45;;;;;;;4.07;1.73;;;;;;;8.80;54.15;98167.97;8444624;28;20233;-67
2023/02/01 09:43:55;;;;;;;4.23;1.83;;;;;;;9.12;53.42;98194.41;8444434;28;20235;-66
2023/02/01 09:48:01;;;;;;;4.97;2.07;;;;;;;8.70;55.35;98202.72;8444635;28;20226;-66
2023/02/01 09:52:08;;;;;;;3.30;1.50;;;;;;;8.42;55.88;98188.16;8444244;28;20407;-66
2023/02/01 09:56:14;;;;;;;5.50;1.80;;;;;;;8.54;55.24;98218.72;8444375;28;20239;-66
2023/02/01 10:00:21;;;;;;;6.93;1.80;;;;;;;8.25;56.27;98187.81;8444275;28;20472;-67
2023/02/01 10:04:24;;;;;;;5.30;1.70;;;;;;;8.60;55.52;98209.94;8444037;28;20510;-65
2023/02/01 10:08:37;;;;;;;6.57;2.10;;;;;;;8.14;57.02;98214.75;8443948;28;20227;-66
2023/02/01 10:12:51;;;;;;;5.83;1.87;;;;;;;8.17;57.29;98216.44;8444168;28;20231;-66
2023/02/01 10:16:58;;;;;;;6.37;2.50;;;;;;;7.98;58.20;98216.97;8444050;28;20391;-66
2023/02/01 10:21:07;;;;;;;8.07;2.23;;;;;;;7.98;58.62;98224.72;8443493;28;20268;-66
2023/02/01 10:25:16;;;;;;;8.70;2.73;;;;;;;8.07;59.06;98213.25;8443845;28;20297;-66
2023/02/01 10:29:21;;;;;;;5.30;2.57;;;;;;;8.27;59.22;98217.81;8443350;28;20522;-66
2023/02/01 10:33:27;;;;;;;6.00;2.63;;;;;;;7.24;61.17;98157.22;8442943;28;20508;-65
2023/02/01 10:37:31;;;;;;;5.80;2.60;;;;;;;8.02;59.86;98228.06;8443631;28;20227;-66
2023/02/01 10:41:37;;;;;;;7.50;2.67;;;;;;;8.04;60.14;98223.69;8443708;28;20235;-65
2023/02/01 10:45:42;;;;;;;6.60;2.70;;;;;;;8.68;57.56;98217.41;8442343;28;20545;-66
2023/02/01 10:49:51;;;;;;;8.83;2.97;;;;;;;8.21;58.61;98218.03;8443153;28;20223;-66
2023/02/01 10:53:56;;;;;;;8.90;2.90;;;;;;;8.19;58.41;98204.31;8447263;28;20234;-65
2023/02/01 10:58:01;;;;;;;8.30;2.90;;;;;;;8.44;57.71;98212.16;8450051;28;20231;-66
2023/02/01 11:02:16;;;;;;;8.60;2.80;;;;;;;8.31;57.61;98193.59;8449749;28;20228;-65
2023/02/01 11:06:25;;;;;;;9.87;3.10;;;;;;;8.22;58.63;98184.44;8449627;28;20425;-66
2023/02/01 11:10:36;;;;;;;6.73;2.67;;;;;;;8.18;59.37;98184.56;8449821;28;20227;-66
2023/02/01 11:14:40;;;;;;;11.03;3.20;;;;;;;8.14;59.93;98185.56;8449431;28;20236;-66
2023/02/01 11:18:44;;;;;;;7.40;3.03;;;;;;;8.09;60.79;98180.56;8449038;28;20227;-66
2023/02/01 11:22:49;;;;;;;9.13;3.50;;;;;;;8.22;60.09;98161.22;8449488;28;20231;-66
2023/02/01 11:26:52;;;;;;;7.10;2.97;;;;;;;8.49;59.40;98162.97;8449494;28;20705;-66
2023/02/01 11:30:57;;;;;;;9.23;2.27;;;;;;;8.37;59.13;98153.84;8448872;28;20554;-66
2023/02/01 11:35:04;;;;;;;7.37;2.40;;;;;;;8.38;58.32;98146.06;8448627;28;20238;-65
2023/02/01 11:39:26;;;;;;;7.10;2.70;;;;;;;8.33;57.89;98147.13;8448924;28;20228;-66
2023/02/01 11:43:30;;;;;;;7.57;2.40;;;;;;;8.46;56.90;98120.03;8448977;28;20428;-67
2023/02/01 11:47:40;;;;;;;10.90;3.00;;;;;;;8.42;57.96;98149.44;8448687;28;20531;-66
2023/02/01 11:51:53;;;;;;;6.10;2.17;;;;;;;8.45;57.42;98140.75;8448236;28;20239;-66
2023/02/01 11:56:06;;;;;;;10.30;2.73;;;;;;;8.39;57.55;98142.59;8448386;28;20228;-67
2023/02/01 12:00:24;;;;;;;9.10;2.60;;;;;;;8.12;58.49;98143.50;8448226;28;20235;-67
2023/02/01 12:05:02;;;;;;;7.13;2.10;;;;;;;8.44;58.19;98144.22;8448208;28;20227;-67
2023/02/01 12:09:22;;;;;;;6.30;2.47;;;;;;;8.44;57.63;98139.06;8447815;28;20228;-66
2023/02/01 12:13:38;;;;;;;7.13;2.30;;;;;;;8.78;57.17;98136.19;8447873;28;20235;-66
2023/02/01 12:18:00;;;;;;;9.53;2.67;;;;;;;8.54;57.40;98128.38;8446819;28;20234;-66
2023/02/01 12:22:23;;;;;;;7.67;2.37;;;;;;;8.40;57.65;98122.81;8447480;28;20227;-66
2023/02/01 12:26:44;;;;;;;10.30;2.60;;;;;;;8.29;57.85;98132.63;8447551;28;20227;-66
2023/02/01 12:31:12;;;;;;;9.63;2.93;;;;;;;7.92;59.49;98129.50;8446969;28;20495;-66
2023/02/01 12:35:27;;;;;;;8.80;2.43;;;;;;;8.09;60.22;98130.69;8444438;28;20231;-66
2023/02/01 12:39:38;;;;;;;10.27;2.87;;;;;;;7.75;62.42;98142.03;8446290;28;20227;-66
2023/02/01 12:43:46;;;;;;;9.23;3.00;;;;;;;7.97;61.74;98119.84;8447085;28;20527;-66
2023/02/01 12:47:53;;;;;;;8.63;2.87;;;;;;;8.00;61.96;98118.94;8446466;28;20228;-66
2023/02/01 12:52:01;;;;;;;8.73;2.87;;;;;;;8.03;61.52;98130.00;8447357;28;20243;-67
2023/02/01 12:56:09;;;;;;;8.83;2.90;;;;;;;8.25;61.26;98100.09;8447100;28;20230;-67
2023/02/01 13:00:22;;;;;;;10.20;2.97;;;;;;;8.07;61.48;98109.25;8447138;28;20219;-67
2023/02/01 13:04:34;;;;;;;8.20;2.67;;;;;;;8.12;60.81;98094.47;8446723;28;20219;-67
2023/02/01 13:08:43;;;;;;;9.67;2.63;;;;;;;8.17;60.27;98084.88;8446497;28;20355;-66
2023/02/01 13:12:51;;;;;;;8.23;2.83;;;;;;;8.01;60.23;98074.19;8446117;28;20564;-67
2023/02/01 13:17:00;;;;;;;8.17;2.37;;;;;;;8.38;58.82;98083.31;8445512;28;20415;-66
2023/02/01 13:21:06;;;;;;;10.03;2.73;;;;;;;8.10;58.72;98076.47;8446113;28;20526;-66
2023/02/01 13:25:13;;;;;;;8.47;2.60;;;;;;;7.92;58.69;98083.06;8446052;28;20231;-66
2023/02/01 13:29:20;;;;;;;8.77;2.73;;;;;;;7.35;58.88;97988.63;8445411;28;20219;-67
2023/02/01 13:33:56;;;;;;;10.97;2.80;;;;;;;8.01;57.42;98063.88;8444875;28;20514;-66
2023/02/01 13:38:39;;;;;;;7.27;2.90;;;;;;;8.32;57.96;98062.84;8419702;28;20219;-66
2023/02/01 13:42:48;;;;;;;8.80;2.90;;;;;;;8.35;57.40;98055.00;8444776;28;20215;-66
2023/02/01 13:46:53;;;;;;;6.53;2.60;;;;;;;8.08;57.14;98054.19;8445214;28;20232;-67
2023/02/01 13:50:57;;;;;;;9.53;2.77;;;;;;;8.40;56.88;98059.13;8435954;28;20231;-66
2023/02/01 13:55:17;;;;;;;10.33;2.60;;;;;;;8.22;55.87;98062.31;8444632;28;20243;-66
2023/02/01 13:59:51;;;;;;;8.20;2.27;;;;;;;8.46;56.33;98057.28;8444459;28;20551;-67
2023/02/01 14:03:55;;;;;;;7.30;2.50;;;;;;;8.39;56.36;98062.59;8444453;28;20242;-67
2023/02/01 14:08:12;;;;;;;9.00;2.53;;;;;;;7.78;56.41;98036.25;8444662;28;20405;-66
2023/02/01 14:12:46;;;;;;;10.03;2.50;;;;;;;7.83;57.08;98047.25;8444581;28;20475;-67
2023/02/01 14:17:18;;;;;;;9.07;2.30;;;;;;;7.97;56.02;98050.22;8441667;28;20211;-66
2023/02/01 14:21:25;;;;;;;7.87;2.50;;;;;;;7.49;55.85;97967.59;8441577;28;20227;-67
2023/02/01 14:25:33;;;;;;;11.47;2.47;;;;;;;8.12;55.82;98059.19;8443374;28;20231;-67
2023/02/01 14:29:38;;;;;;;9.03;2.07;;;;;;;7.90;56.33;98066.81;8449396;28;20293;-67
2023/02/01 14:33:42;;;;;;;7.70;2.43;;;;;;;7.76;56.00;98059.47;8450522;28;20547;-67
2023/02/01 14:37:46;;;;;;;11.30;2.83;;;;;;;7.59;55.57;98029.06;8450909;28;20223;-67
2023/02/01 14:41:58;;;;;;;8.70;3.00;;;;;;;7.89;55.12;98029.00;8450606;28;20526;-67
2023/02/01 14:46:07;;;;;;;8.57;2.30;;;;;;;7.55;56.11;98053.25;8450542;28;20253;-67
2023/02/01 14:50:27;;;;;;;11.33;2.33;;;;;;;7.77;55.91;98057.78;8450721;28;20242;-66
2023/02/01 14:54:30;;;;;;;9.70;2.50;;;;;;;7.85;56.78;98058.38;8452131;28;20227;-67
2023/02/01 14:58:40;;;;;;;11.87;2.67;;;;;;;7.93;56.35;98046.06;8450201;28;20219;-67
2023/02/01 15:02:46;;;;;;;8.20;2.23;;;;;;;7.76;57.10;98054.34;8449375;28;20224;-66
2023/02/01 15:06:51;;;;;;;8.53;2.20;;;;;;;7.60;57.16;98061.72;8450213;28;20232;-67
2023/02/01 15:10:54;;;;;;;8.90;2.23;;;;;;;7.61;57.03;98034.19;8449947;28;20239;-67
2023/02/01 15:15:22;;;;;;;8.37;2.53;;;;;;;7.48;56.79;98049.19;8448980;28;20242;-67
2023/02/01 15:19:30;;;;;;;7.60;2.80;;;;;;;7.71;56.88;98050.22;8435264;28;20219;-66
2023/02/01 15:23:33;;;;;;;6.60;2.20;;;;;;;7.67;56.56;98041.72;8449632;28;20345;-66
2023/02/01 15:27:37;;;;;;;9.30;2.63;;;;;;;7.51;57.04;98027.66;8449416;28;20223;-67
2023/02/01 15:31:42;;;;;;;10.17;2.53;;;;;;;7.51;56.82;98028.47;8449180;28;20546;-67
2023/02/01 15:35:48;;;;;;;8.37;2.20;;;;;;;7.70;56.48;98021.03;8448437;28;20228;-67
2023/02/01 15:40:07;;;;;;;9.77;2.70;;;;;;;7.61;56.54;98022.13;8447509;28;20224;-66
2023/02/01 15:44:20;;;;;;;11.33;2.70;;;;;;;7.56;56.50;98030.94;8449244;28;20435;-67
2023/02/01 15:48:24;;;;;;;9.97;2.47;;;;;;;7.49;56.31;98019.13;8438707;28;20234;-67
2023/02/01 15:52:35;;;;;;;8.10;2.17;;;;;;;7.60;55.98;98023.03;8448935;28;20227;-67
2023/02/01 15:56:40;;;;;;;9.97;2.43;;;;;;;7.60;55.94;98030.78;8448735;28;20231;-67
2023/02/01 16:00:45;;;;;;;5.97;2.27;;;;;;;7.74;55.31;98032.91;8448083;28;20219;-66
2023/02/01 16:04:50;;;;;;;9.67;3.00;;;;;;;7.57;55.33;98035.19;8448120;28;20232;-67
2023/02/01 16:08:56;;;;;;;8.17;2.80;;;;;;;7.53;55.64;98036.19;8446983;28;20239;-66
2023/02/01 16:13:00;;;;;;;10.47;2.70;;;;;;;7.41;55.88;98035.66;8453628;28;20420;-67
2023/02/01 16:17:02;;;;;;;10.17;2.60;;;;;;;7.87;54.68;98030.78;8447799;28;20400;-67
2023/02/01 16:21:07;;;;;;;9.17;2.27;;;;;;;7.39;55.12;98018.56;8447410;28;20322;-67
2023/02/01 16:25:12;;;;;;;8.83;2.73;;;;;;;7.31;55.20;98038.56;8446321;28;20286;-66
2023/02/01 16:29:16;;;;;;;9.20;2.30;;;;;;;7.35;55.31;98040.13;8446460;28;20224;-66
2023/02/01 16:33:21;;;;;;;7.67;2.20;;;;;;;7.49;54.36;98035.44;8447410;28;20250;-66
2023/02/01 16:37:27;;;;;;;7.90;1.97;;;;;;;7.43;54.62;98045.94;8447329;28;20227;-66
2023/02/01 16:41:32;;;;;;;15.57;2.87;;;;;;;7.39;55.15;98021.97;8447500;28;20227;-67
2023/02/01 16:45:35;;;;;;;6.90;2.27;;;;;;;7.39;54.80;98026.31;8447096;28;20227;-67
2023/02/01 16:49:37;;;;;;;9.00;2.47;;;;;;;7.73;54.25;98014.91;8446543;28;20228;-68
2023/02/01 16:53:41;;;;;;;7.87;2.70;;;;;;;7.67;53.80;98025.44;8445921;28;20235;-66
2023/02/01 16:57:57;;;;;;;7.20;2.50;;;;;;;7.63;53.89;98030.69;8446662;28;20291;-66
2023/02/01 17:02:00;;;;;;;8.83;2.37;;;;;;;7.46;54.43;98029.53;8446848;28;20231;-67
2023/02/01 17:06:03;;;;;;;11.60;2.87;;;;;;;7.58;54.53;98027.41;8446306;28;20231;-66
2023/02/01 17:10:07;;;;;;;12.13;2.60;;;;;;;6.98;54.38;97946.78;8446253;28;20538;-66
2023/02/01 17:14:16;;;;;;;8.67;2.80;;;;;;;7.70;53.69;98027.91;8446317;28;20329;-66
2023/02/01 17:18:19;;;;;;;8.47;2.40;;;;;;;7.36;54.27;98005.78;8437049;28;20228;-66
2023/02/01 17:22:23;;;;;;;10.10;2.60;;;;;;;7.45;54.60;98039.00;8445342;28;20223;-66
2023/02/01 17:26:26;;;;;;;8.77;2.40;;;;;;;7.50;54.08;98019.09;8445658;28;20234;-66
2023/02/01 17:30:31;;;;;;;8.83;2.37;;;;;;;7.24;54.54;98012.16;8445133;28;20374;-65
2023/02/01 17:34:33;;;;;;;9.00;2.47;;;;;;;7.52;54.26;98029.31;8445333;28;20531;-66
2023/02/01 17:38:36;;;;;;;9.57;2.57;;;;;;;7.51;54.24;98010.44;8445700;28;20231;-66
2023/02/01 17:42:39;;;;;;;7.90;2.53;;;;;;;7.48;55.15;98004.53;8445753;28;20226;-66
2023/02/01 17:46:45;;;;;;;8.33;2.57;;;;;;;7.34;55.71;98026.41;8445232;28;20226;-66
2023/02/01 17:50:51;;;;;;;9.37;2.70;;;;;;;7.35;56.86;98040.13;8446024;28;20231;-66
2023/02/01 17:54:55;;;;;;;9.57;2.40;;;;;;;7.44;56.78;98038.16;8445199;28;20243;-66
2023/02/01 17:58:58;;;;;;;7.97;2.40;;;;;;;7.48;57.37;98028.56;8445631;28;20250;-66
2023/02/01 18:03:03;;;;;;;9.60;2.70;;;;;;;7.30;57.75;98029.97;8445765;28;20503;-66
2023/02/01 18:07:06;;;;;;;10.63;2.43;;;;;;;7.18;57.95;98031.19;8445610;28;20435;-66
2023/02/01 18:11:12;;;;;;;12.60;2.70;;;;;;;7.24;57.25;98028.44;8445147;28;20224;-66
2023/02/01 18:15:17;;;;;;;14.43;2.93;;;;;;;7.23;57.05;98039.66;8444765;28;20227;-66
2023/02/01 18:19:22;;;;;;;10.27;2.90;;;;;;;7.40;56.54;97999.63;8444868;28;20369;-66
2023/02/01 18:23:25;;;;;;;8.63;2.77;;;;;;;7.32;56.57;98030.78;8444865;28;20227;-66
2023/02/01 18:27:28;;;;;;;9.43;2.67;;;;;;;7.32;56.39;98022.22;8444886;28;20226;-66
2023/02/01 18:31:32;;;;;;;10.20;2.77;;;;;;;7.46;56.33;98029.53;8444722;28;20234;-66
2023/02/01 18:35:36;;;;;;;9.77;2.63;;;;;;;7.47;56.45;98016.59;8444553;28;20235;-66
2023/02/01 18:39:39;;;;;;;9.30;2.90;;;;;;;7.47;56.67;98044.94;8435773;28;20223;-67
2023/02/01 18:43:42;;;;;;;12.77;3.13;;;;;;;7.47;56.15;98008.84;8443895;28;20219;-66
2023/02/01 18:47:45;;;;;;;9.70;3.47;;;;;;;7.53;56.25;98042.16;8444292;28;20227;-67
2023/02/01 18:51:50;;;;;;;10.00;3.00;;;;;;;7.38;57.08;98037.47;8444483;28;20227;-66
2023/02/01 18:55:53;;;;;;;12.00;3.00;;;;;;;7.59;56.38;98036.81;8444293;28;20235;-66
2023/02/01 18:59:57;;;;;;;8.80;2.50;;;;;;;7.63;56.78;98020.38;8444065;28;20231;-66
2023/02/01 19:04:00;;;;;;;9.10;2.70;;;;;;;7.63;56.53;98020.38;8444282;28;20235;-66
2023/02/01 19:08:23;;;;;;;6.50;2.40;;;;;;;10.04;67.30;98020.28;8444201;28;20393;-67
2023/02/01 19:12:26;;;;;;;9.60;3.00;;;;;;;9.44;57.43;98014.06;8444299;28;20227;-67
2023/02/01 19:16:29;;;;;;;11.27;3.10;;;;;;;8.09;57.83;98015.47;8450117;28;20238;-66
2023/02/01 19:20:31;;;;;;;10.10;2.57;;;;;;;8.14;58.63;98023.88;8450554;28;20227;-66
2023/02/01 19:24:35;;;;;;;9.47;2.97;;;;;;;7.69;59.45;98029.66;8450151;28;20525;-67
2023/02/01 19:28:38;;;;;;;10.27;3.40;;;;;;;7.63;60.31;98011.78;8449869;28;20231;-65
2023/02/01 19:32:41;;;;;;;13.87;3.30;;;;;;;7.72;59.58;98026.13;8449478;28;20223;-67
2023/02/01 19:36:44;;;;;;;13.17;3.50;;;;;;;7.72;59.20;98013.25;8449977;28;20235;-67
2023/02/01 19:40:50;;;;;;;12.43;3.47;;;;;;;7.90;59.06;98027.25;8449810;28;20226;-66
2023/02/01 19:44:53;;;;;;;6.87;2.50;;;;;;;7.66;58.96;98019.44;8449590;28;20712;-67
2023/02/01 19:48:55;;;;;;;9.77;3.17;;;;;;;7.61;58.73;98024.72;8449773;28;20238;-67
2023/02/01 19:52:58;;;;;;;10.77;3.20;;;;;;;7.29;59.65;98012.84;8449434;28;20429;-66
2023/02/01 19:57:02;;;;;;;10.70;3.00;;;;;;;7.33;59.20;98003.28;8449244;28;20247;-66
2023/02/01 20:01:06;;;;;;;10.53;2.83;;;;;;;7.21;59.62;98023.38;8449176;28;20230;-66